Historique des mesures à Cassis (13260), France
Quotidien Résumé Juin 2, 2021 Unités:  Métrique    US   Métrique/US
Quotidien Hebdomadaire Mensuel Annuel
  Maximum: Minimum: Moyenne:
Température: 26.3 °C 18.8 °C 23.1 °C
Point de rosée: 15.2 °C 9.9 °C 11.9 °C
Humidité: 69% 39% 50%
Vitesse du vent: 27.7km/h 6.8km/h 15.8km/h
Rafales: 40km/h - -
Vent- - WNW
Pression: 1012.7 hPa 1009.3 hPa -
Précipitations: 0.0 mm    
Historical Graphs
 
 
Mesures pour : Juin 2, 2021
Heure Temperature Point de rosée Pression Vent Vitesse du vent Rafales Humidité Pluie (par heure)
00:11 21.9 °C 10.4 °C 1009.6 hPa NW 18.7 km/h 23.4 km/h 48% 0.0 mm
01:11 21.4 °C 9.9 °C 1009.4 hPa WSW 19.1 km/h 29.5 km/h 48% 0.0 mm
02:11 20.8 °C 10.6 °C 1009.3 hPa WNW 10.4 km/h 25.9 km/h 52% 0.0 mm
03:11 20.4 °C 11 °C 1009.5 hPa WNW 10.1 km/h 30.2 km/h 55% 0.0 mm
04:11 20 °C 10.9 °C 1009.7 hPa WNW 9.4 km/h 30.2 km/h 56% 0.0 mm
05:11 19.5 °C 11.6 °C 1009.7 hPa NNW 23 km/h 31.7 km/h 60% 0.0 mm
06:11 19.1 °C 11.7 °C 1010.2 hPa WNW 27.7 km/h 40 km/h 62% 0.0 mm
07:11 18.8 °C 11.6 °C 1010.5 hPa WNW 8.3 km/h 29.2 km/h 63% 0.0 mm
08:11 25.2 °C 13.4 °C 1011.3 hPa West 7.2 km/h 21.6 km/h 48% 0.0 mm
09:11 21.3 °C 11.9 °C 1011.6 hPa West 17.3 km/h 26.6 km/h 55% 0.0 mm
10:11 21.9 °C 12.1 °C 1011.7 hPa West 15.8 km/h 30.6 km/h 54% 0.0 mm
11:11 24.9 °C 12.5 °C 1011.7 hPa WSW 13 km/h 23.4 km/h 46% 0.0 mm
12:11 26.3 °C 11.7 °C 1012.0 hPa West 21.6 km/h 29.9 km/h 40% 0.0 mm
13:11 26.2 °C 11.2 °C 1012.0 hPa WSW 6.8 km/h 31 km/h 39% 0.0 mm
14:11 26.3 °C 11.2 °C 1011.9 hPa West 27.4 km/h 36.4 km/h 39% 0.0 mm
15:11 26.1 °C 12.2 °C 1011.7 hPa WNW 13.3 km/h 36 km/h 42% 0.0 mm
16:11 25.8 °C 12.6 °C 1011.5 hPa West 7.9 km/h 27.4 km/h 44% 0.0 mm
17:11 25.8 °C 11.9 °C 1011.2 hPa WNW 26.6 km/h 31.7 km/h 42% 0.0 mm
18:11 25.9 °C 12 °C 1010.8 hPa WNW 18 km/h 28.4 km/h 42% 0.0 mm
19:11 25.3 °C 11.8 °C 1010.8 hPa NW 19.8 km/h 29.5 km/h 43% 0.0 mm
20:11 24.2 °C 12.8 °C 1011.2 hPa WNW 19.8 km/h 19.8 km/h 49% 0.0 mm
21:11 22.4 °C 14.3 °C 1011.5 hPa NW 10.8 km/h 26.6 km/h 60% 0.0 mm
23:11 21.1 °C 15.2 °C 1012.7 hPa WNW 10.8 km/h 19.8 km/h 69% 0.0 mm
Observations météo à CASSIS
WU-History script by Weather Underground - 2 mb